createdAt,value
2019-01-22T00:00:26.206Z,46.55
2019-01-22T00:02:28.067Z,41.13
2019-01-22T00:04:29.430Z,42.90
2019-01-22T00:09:53.828Z,45.25
2019-01-22T00:11:55.169Z,41.80
2019-01-22T00:13:56.560Z,40.60
2019-01-22T00:15:57.916Z,35.70
2019-01-22T00:17:59.272Z,38.70
2019-01-22T00:20:00.634Z,36.38
2019-01-22T00:22:02.099Z,41.75
2019-01-22T00:24:03.875Z,37.80
2019-01-22T00:26:05.214Z,36.33
2019-01-22T00:28:06.586Z,40.50
2019-01-22T00:30:13.441Z,38.85
2019-01-22T00:32:14.807Z,38.23
2019-01-22T00:34:16.466Z,40.48
2019-01-22T00:36:18.101Z,36.45
2019-01-22T00:38:19.488Z,36.53
2019-01-22T00:40:20.825Z,35.95
2019-01-22T00:42:22.239Z,39.92
2019-01-22T00:44:24.853Z,37.17
2019-01-22T00:46:26.221Z,36.85
2019-01-22T00:48:27.569Z,37.78
2019-01-22T00:50:28.933Z,36.45
2019-01-22T00:52:30.793Z,39.05
2019-01-22T00:54:32.170Z,36.75
2019-01-22T00:56:33.583Z,37.15
2019-01-22T00:58:34.951Z,35.65
2019-01-22T01:00:36.307Z,37.73
2019-01-22T01:02:37.665Z,39.10
2019-01-22T01:04:39.221Z,38.95
2019-01-22T01:06:40.569Z,37.03
2019-01-22T01:08:42.222Z,38.80
2019-01-22T01:10:43.862Z,38.30
2019-01-22T01:12:45.417Z,37.53
2019-01-22T01:14:46.881Z,41.58
2019-01-22T01:16:48.239Z,37.85
2019-01-22T01:18:49.572Z,36.70
2019-01-22T01:20:50.964Z,35.63
2019-01-22T01:22:52.339Z,35.50
2019-01-22T01:24:53.707Z,37.35
2019-01-22T01:26:55.488Z,34.60
2019-01-22T01:28:57.345Z,36.73
2019-01-22T01:30:58.676Z,35.43
2019-01-22T01:33:00.036Z,33.23
2019-01-22T01:35:01.477Z,37.63
2019-01-22T01:37:03.112Z,34.67
2019-01-22T01:39:04.487Z,38.00
2019-01-22T01:41:06.041Z,37.63
2019-01-22T01:43:07.385Z,35.35
2019-01-22T01:45:09.030Z,36.10
2019-01-22T01:47:10.493Z,33.67
2019-01-22T01:49:11.850Z,34.08
2019-01-22T01:51:13.222Z,36.68
2019-01-22T01:53:14.592Z,34.53
2019-01-22T01:55:16.832Z,32.58
2019-01-22T01:57:18.213Z,35.55
2019-01-22T01:59:19.574Z,35.73
2019-01-22T02:01:22.207Z,33.98
2019-01-22T02:03:23.572Z,35.78
2019-01-22T02:05:24.966Z,34.58
2019-01-22T02:07:26.376Z,35.83
2019-01-22T02:09:27.752Z,32.33
2019-01-22T02:11:29.103Z,36.40
2019-01-22T02:13:31.255Z,34.15
2019-01-22T02:15:38.359Z,33.42
2019-01-22T02:17:53.962Z,36.10
2019-01-22T02:20:19.296Z,38.83
2019-01-22T02:22:44.437Z,47.10
2019-01-22T02:24:54.093Z,40.80
2019-01-22T02:27:09.651Z,39.48
2019-01-22T02:29:25.710Z,35.68
2019-01-22T02:31:50.695Z,36.00
2019-01-22T02:34:01.063Z,35.40
2019-01-22T02:36:43.366Z,34.63
2019-01-22T02:39:02.102Z,35.13
2019-01-22T02:41:14.716Z,35.43
2019-01-22T02:43:24.690Z,34.67
2019-01-22T02:46:09.354Z,37.65
2019-01-22T02:48:19.632Z,42.88
2019-01-22T02:50:42.067Z,42.85
2019-01-22T02:53:06.840Z,39.50
2019-01-22T02:55:13.911Z,38.75
2019-01-22T02:58:08.062Z,39.83
2019-01-22T03:00:17.836Z,37.25
2019-01-22T03:02:44.445Z,34.05
2019-01-22T03:05:06.602Z,38.70
2019-01-22T03:07:35.254Z,34.05
2019-01-22T03:10:20.148Z,35.20
2019-01-22T03:12:57.093Z,34.15
2019-01-22T03:15:39.074Z,32.45
2019-01-22T03:17:58.048Z,34.92
2019-01-22T03:20:14.035Z,33.02
2019-01-22T03:22:56.567Z,36.68
2019-01-22T03:25:30.575Z,35.13
2019-01-22T03:27:52.866Z,34.45
2019-01-22T03:30:20.932Z,35.03
2019-01-22T03:33:22.080Z,36.73
2019-01-22T03:36:05.115Z,35.95
2019-01-22T03:39:06.154Z,36.83
2019-01-22T03:41:49.198Z,34.88
2019-01-22T03:44:50.258Z,34.63
2019-01-22T03:47:33.295Z,37.53
2019-01-22T03:50:16.024Z,38.78
2019-01-22T03:52:59.513Z,35.00
2019-01-22T03:56:00.513Z,35.15
2019-01-22T03:58:21.811Z,36.30
2019-01-22T04:00:43.112Z,37.90
2019-01-22T04:03:04.480Z,37.15
2019-01-22T04:05:25.783Z,35.98
2019-01-22T04:07:47.050Z,35.73
2019-01-22T04:10:30.243Z,37.70
2019-01-22T04:12:51.518Z,34.50
2019-01-22T04:15:34.593Z,31.97
2019-01-22T04:17:55.993Z,34.27
2019-01-22T04:20:17.353Z,32.83
2019-01-22T04:22:38.612Z,35.08
2019-01-22T04:25:40.260Z,35.10
2019-01-22T04:28:23.293Z,34.90
2019-01-22T04:34:38.407Z,35.55
2019-01-22T04:37:21.608Z,31.97
2019-01-22T04:40:22.634Z,37.55
2019-01-22T04:43:05.710Z,34.88
2019-01-22T04:45:48.752Z,33.20
2019-01-22T04:48:32.146Z,34.73
2019-01-22T04:51:15.173Z,32.78
2019-01-22T04:53:46.726Z,35.75
2019-01-22T04:55:56.745Z,31.73
2019-01-22T04:58:04.355Z,35.23
2019-01-22T05:00:48.253Z,36.70
2019-01-22T05:02:58.341Z,33.20
2019-01-22T05:05:25.108Z,34.30
2019-01-22T05:07:41.456Z,35.95
2019-01-22T05:10:00.519Z,39.35
2019-01-22T05:12:22.212Z,39.83
2019-01-22T05:14:49.926Z,36.73
2019-01-22T05:17:02.728Z,34.60
2019-01-22T05:19:15.763Z,36.25
2019-01-22T05:21:44.198Z,36.83
2019-01-22T05:24:18.789Z,38.10
2019-01-22T05:26:50.163Z,36.40
2019-01-22T05:29:25.713Z,38.60
2019-01-22T05:31:45.185Z,34.38
2019-01-22T05:34:13.354Z,37.78
2019-01-22T05:36:48.902Z,42.33
2019-01-22T05:39:13.503Z,35.60
2019-01-22T05:41:44.364Z,33.70
2019-01-22T05:44:24.803Z,34.00
2019-01-22T05:47:16.399Z,33.20
2019-01-22T05:49:55.206Z,31.85
2019-01-22T05:52:08.507Z,34.73
2019-01-22T05:54:25.125Z,34.08
2019-01-22T05:56:33.215Z,34.18
2019-01-22T05:59:10.419Z,37.53
2019-01-22T06:01:17.507Z,34.25
2019-01-22T06:03:27.633Z,34.18
2019-01-22T06:06:06.395Z,34.20
2019-01-22T06:08:35.173Z,33.20
2019-01-22T06:10:57.334Z,33.58
2019-01-22T06:13:13.617Z,31.52
2019-01-22T06:15:44.695Z,32.28
2019-01-22T06:18:22.009Z,31.60
2019-01-22T06:20:49.374Z,30.90
2019-01-22T06:23:25.395Z,34.43
2019-01-22T06:25:59.535Z,33.23
2019-01-22T06:28:27.570Z,34.53
2019-01-22T06:30:57.044Z,34.48
2019-01-22T06:33:04.193Z,34.80
2019-01-22T06:35:18.538Z,33.70
2019-01-22T06:37:37.461Z,34.40
2019-01-22T06:39:44.597Z,35.90
2019-01-22T06:42:20.971Z,33.63
2019-01-22T06:45:10.573Z,32.33
2019-01-22T06:47:26.711Z,34.48
2019-01-22T06:49:39.561Z,34.98
2019-01-22T06:52:13.016Z,32.78
2019-01-22T06:54:26.080Z,35.85
2019-01-22T06:56:36.393Z,33.20
2019-01-22T06:58:58.877Z,32.70
2019-01-22T07:01:23.320Z,33.13
2019-01-22T07:03:42.499Z,31.27
2019-01-22T07:06:17.043Z,34.08
2019-01-22T07:09:08.809Z,30.92
2019-01-22T07:11:33.646Z,29.00
2019-01-22T07:14:18.913Z,30.27
2019-01-22T07:16:29.351Z,32.33
2019-01-22T07:18:39.619Z,33.20
2019-01-22T07:20:58.221Z,31.52
2019-01-22T07:23:23.075Z,35.65
2019-01-22T07:26:02.071Z,34.88
2019-01-22T07:28:38.903Z,32.08
2019-01-22T07:31:06.662Z,30.95
2019-01-22T07:33:33.362Z,32.45
2019-01-22T07:35:52.495Z,36.15
2019-01-22T07:37:59.709Z,36.45
2019-01-22T07:40:30.904Z,35.35
2019-01-22T07:42:50.338Z,40.58
2019-01-22T07:45:12.635Z,38.75
2019-01-22T07:47:22.294Z,32.93
2019-01-22T07:50:09.127Z,34.13
2019-01-22T07:52:31.429Z,34.58
2019-01-22T07:55:06.178Z,36.13
2019-01-22T07:57:47.723Z,36.98
2019-01-22T08:00:00.939Z,34.35
2019-01-22T08:02:24.304Z,36.50
2019-01-22T08:05:10.904Z,35.52
2019-01-22T08:07:25.869Z,31.48
2019-01-22T08:09:56.902Z,33.15
2019-01-22T08:12:26.759Z,35.52
2019-01-22T08:14:48.703Z,32.63
2019-01-22T08:17:19.549Z,34.38
2019-01-22T08:19:47.372Z,34.13
2019-01-22T08:22:29.763Z,34.80
2019-01-22T08:25:01.068Z,36.13
2019-01-22T08:27:20.298Z,38.55
2019-01-22T08:29:41.907Z,38.55
2019-01-22T08:31:57.848Z,38.17
2019-01-22T08:34:50.946Z,37.33
2019-01-22T08:37:06.980Z,36.25
2019-01-22T08:39:23.501Z,39.23
2019-01-22T08:42:02.042Z,35.55
2019-01-22T08:44:30.273Z,36.10
2019-01-22T08:46:37.375Z,35.20
2019-01-22T08:48:55.986Z,35.92
2019-01-22T08:51:27.261Z,33.60
2019-01-22T08:53:37.074Z,35.78
2019-01-22T08:56:14.163Z,34.88
2019-01-22T08:58:35.919Z,37.55
2019-01-22T09:00:55.349Z,36.93
2019-01-22T09:03:08.261Z,36.55
2019-01-22T09:05:24.575Z,39.00
2019-01-22T09:07:43.856Z,38.92
2019-01-22T09:10:12.724Z,41.35
2019-01-22T09:12:19.831Z,36.45
2019-01-22T09:14:39.329Z,40.10
2019-01-22T09:17:09.102Z,38.65
2019-01-22T09:19:28.418Z,36.30
2019-01-22T09:22:00.079Z,35.30
2019-01-22T09:24:07.154Z,33.55
2019-01-22T09:26:14.414Z,42.73
2019-01-22T09:28:38.586Z,33.75
2019-01-22T09:30:51.701Z,41.92
2019-01-22T09:33:10.935Z,42.08
2019-01-22T09:35:36.086Z,34.40
2019-01-22T09:37:39.156Z,36.88
2019-01-22T09:39:40.550Z,33.53
2019-01-22T09:41:41.922Z,33.85
2019-01-22T09:43:43.509Z,37.42
2019-01-22T09:45:44.879Z,35.10
2019-01-22T09:47:46.345Z,32.90
2019-01-22T09:49:47.842Z,34.00
2019-01-22T09:51:49.304Z,34.35
2019-01-22T09:53:50.676Z,38.20
2019-01-22T09:55:52.074Z,35.88
2019-01-22T09:57:53.428Z,40.50
2019-01-22T09:59:54.833Z,35.20
2019-01-22T10:01:56.202Z,40.92
2019-01-22T10:04:03.389Z,34.43
2019-01-22T10:06:00.956Z,32.33
2019-01-22T10:08:02.316Z,31.55
2019-01-22T10:10:15.088Z,32.35
2019-01-22T10:12:16.454Z,30.23
2019-01-22T10:14:17.806Z,37.83
2019-01-22T10:16:19.435Z,34.75
2019-01-22T10:18:20.829Z,33.28
2019-01-22T10:20:22.792Z,31.35
2019-01-22T10:22:24.169Z,30.12
2019-01-22T10:24:25.562Z,31.57
2019-01-22T10:26:26.968Z,31.62
2019-01-22T10:28:28.341Z,31.95
2019-01-22T10:30:29.750Z,30.72
2019-01-22T10:32:31.124Z,31.00
2019-01-22T10:34:32.545Z,28.45
2019-01-22T10:36:34.091Z,30.23
2019-01-22T10:38:35.458Z,31.48
2019-01-22T10:40:36.833Z,29.48
2019-01-22T10:42:38.237Z,27.70
2019-01-22T10:44:39.681Z,32.08
2019-01-22T10:46:41.051Z,27.22
2019-01-22T10:48:42.449Z,30.50
2019-01-22T10:50:43.811Z,28.75
2019-01-22T10:52:45.177Z,28.50
2019-01-22T10:54:46.568Z,26.90
2019-01-22T10:56:47.971Z,25.70
2019-01-22T10:58:49.338Z,28.80
2019-01-22T11:00:50.741Z,27.05
2019-01-22T11:02:52.198Z,28.15
2019-01-22T11:04:53.767Z,28.80
2019-01-22T11:06:55.162Z,36.35
2019-01-22T11:08:56.534Z,29.42
2019-01-22T11:10:57.951Z,28.70
2019-01-22T11:12:59.361Z,26.40
2019-01-22T11:15:02.853Z,27.25
2019-01-22T11:17:04.257Z,24.63
2019-01-22T11:19:05.660Z,26.40
2019-01-22T11:21:07.025Z,25.57
2019-01-22T11:23:08.380Z,25.65
2019-01-22T11:25:14.588Z,26.95
2019-01-22T11:27:15.952Z,26.60
2019-01-22T11:29:17.326Z,25.12
2019-01-22T11:31:18.723Z,26.10
2019-01-22T11:33:20.095Z,28.05
2019-01-22T11:35:23.567Z,25.62
2019-01-22T11:37:25.183Z,26.42
2019-01-22T11:39:26.549Z,25.80
2019-01-22T11:41:28.015Z,23.40
2019-01-22T11:43:29.442Z,27.30
2019-01-22T11:45:30.804Z,24.23
2019-01-22T11:47:32.270Z,25.48
2019-01-22T11:49:33.985Z,24.85
2019-01-22T11:51:37.249Z,23.50
2019-01-22T11:53:38.674Z,23.07
2019-01-22T11:55:40.182Z,23.00
2019-01-22T11:57:41.556Z,25.75
2019-01-22T11:59:43.215Z,23.02
2019-01-22T12:01:44.624Z,24.20
2019-01-22T12:03:46.194Z,25.55
2019-01-22T12:05:47.661Z,23.42
2019-01-22T12:07:49.079Z,25.25
2019-01-22T12:09:50.548Z,23.80
2019-01-22T12:11:51.954Z,23.92
2019-01-22T12:13:55.256Z,22.82
2019-01-22T12:15:56.761Z,23.15
2019-01-22T12:17:58.237Z,23.07
2019-01-22T12:20:01.542Z,22.65
2019-01-22T12:22:02.981Z,22.10
2019-01-22T12:24:04.471Z,22.30
2019-01-22T12:26:05.837Z,20.20
2019-01-22T12:28:07.339Z,24.32
2019-01-22T12:30:26.275Z,21.57
2019-01-22T12:32:27.853Z,22.27
2019-01-22T12:34:29.226Z,22.85
2019-01-22T12:36:30.632Z,22.05
2019-01-22T12:38:31.995Z,22.27
2019-01-22T12:40:33.510Z,20.00
2019-01-22T12:42:35.012Z,21.33
2019-01-22T12:44:36.472Z,21.40
2019-01-22T12:46:37.862Z,22.67
2019-01-22T12:48:39.289Z,19.60
2019-01-22T12:50:40.883Z,21.80
2019-01-22T12:52:42.251Z,20.72
2019-01-22T12:54:43.660Z,21.25
2019-01-22T12:56:46.067Z,21.33
2019-01-22T12:58:47.463Z,21.33
2019-01-22T13:00:48.854Z,20.65
2019-01-22T13:02:50.418Z,20.20
2019-01-22T13:04:51.841Z,19.05
2019-01-22T13:06:53.203Z,16.35
2019-01-22T13:08:54.643Z,19.20
2019-01-22T13:10:56.008Z,20.45
2019-01-22T13:12:57.478Z,20.88
2019-01-22T13:14:58.904Z,21.20
2019-01-22T13:17:00.276Z,17.27
2019-01-22T13:19:01.634Z,18.17
2019-01-22T13:21:03.304Z,22.37
2019-01-22T13:23:04.774Z,20.02
2019-01-22T13:25:09.442Z,17.92
2019-01-22T13:27:10.875Z,20.25
2019-01-22T13:29:12.336Z,19.55
2019-01-22T13:31:13.763Z,19.80
2019-01-22T13:33:15.193Z,19.15
2019-01-22T13:35:16.841Z,18.48
2019-01-22T13:37:18.200Z,20.08
2019-01-22T13:39:19.579Z,19.15
2019-01-22T13:41:21.079Z,19.45
2019-01-22T13:43:22.454Z,18.20
2019-01-22T13:45:33.183Z,18.52
2019-01-22T13:47:34.580Z,18.92
2019-01-22T13:49:35.966Z,19.67
2019-01-22T13:51:37.378Z,18.10
2019-01-22T13:53:38.856Z,19.40
2019-01-22T13:55:40.406Z,19.67
2019-01-22T13:57:41.820Z,19.98
2019-01-22T13:59:43.195Z,20.15
2019-01-22T14:01:44.566Z,21.15
2019-01-22T14:03:46.020Z,21.10
2019-01-22T14:05:47.410Z,18.73
2019-01-22T14:07:48.884Z,20.68
2019-01-22T14:09:50.372Z,19.45
2019-01-22T14:11:51.750Z,19.50
2019-01-22T14:13:53.128Z,20.12
2019-01-22T14:15:54.578Z,19.98
2019-01-22T14:17:55.960Z,20.20
2019-01-22T14:19:57.321Z,21.27
2019-01-22T14:21:59.340Z,19.67
2019-01-22T14:24:00.709Z,19.48
2019-01-22T14:26:02.240Z,20.02
2019-01-22T14:28:03.877Z,23.15
2019-01-22T14:30:11.135Z,21.68
2019-01-22T14:32:12.503Z,18.77
2019-01-22T14:34:13.880Z,19.92
2019-01-22T14:36:17.217Z,19.48
2019-01-22T14:38:18.587Z,20.52
2019-01-22T14:40:20.423Z,20.35
2019-01-22T14:42:21.891Z,20.12
2019-01-22T14:44:23.258Z,21.85
2019-01-22T14:46:24.688Z,18.87
2019-01-22T14:48:26.055Z,19.35
2019-01-22T14:50:30.632Z,20.90
2019-01-22T14:52:32.264Z,22.07
2019-01-22T14:54:33.699Z,23.10
2019-01-22T14:56:35.082Z,21.27
2019-01-22T14:58:36.451Z,20.40
2019-01-22T15:00:37.879Z,19.32
2019-01-22T15:02:39.348Z,21.00
2019-01-22T15:04:40.717Z,22.27
2019-01-22T15:06:42.141Z,23.55
2019-01-22T15:08:43.508Z,22.30
2019-01-22T15:10:44.885Z,19.77
2019-01-22T15:12:53.350Z,23.20
2019-01-22T15:14:54.711Z,19.45
2019-01-22T15:16:56.126Z,19.27
2019-01-22T15:18:57.533Z,22.62
2019-01-22T15:20:58.904Z,22.52
2019-01-22T15:23:00.433Z,22.13
2019-01-22T15:25:01.801Z,21.30
2019-01-22T15:27:03.269Z,20.43
2019-01-22T15:29:04.792Z,21.87
2019-01-22T15:31:06.153Z,22.20
2019-01-22T15:33:07.513Z,21.45
2019-01-22T15:35:10.507Z,21.95
2019-01-22T15:37:11.874Z,21.62
2019-01-22T15:39:13.244Z,20.65
2019-01-22T15:41:14.676Z,22.10
2019-01-22T15:43:16.039Z,20.25
2019-01-22T15:45:17.801Z,20.75
2019-01-22T15:47:19.233Z,20.72
2019-01-22T15:49:20.591Z,22.58
2019-01-22T15:51:22.061Z,21.95
2019-01-22T15:53:23.485Z,19.87
2019-01-22T15:55:30.927Z,22.00
2019-01-22T15:57:32.292Z,24.67
2019-01-22T15:59:33.721Z,23.42
2019-01-22T16:01:35.183Z,23.42
2019-01-22T16:03:36.546Z,21.82
2019-01-22T16:05:37.957Z,23.77
2019-01-22T16:07:39.774Z,22.22
2019-01-22T16:09:41.249Z,24.98
2019-01-22T16:11:42.720Z,23.15
2019-01-22T16:13:44.200Z,21.20
2019-01-22T16:15:45.565Z,20.70
2019-01-22T16:17:47.633Z,23.57
2019-01-22T16:19:49.146Z,22.62
2019-01-22T16:21:50.513Z,23.27
2019-01-22T16:23:52.012Z,23.32
2019-01-22T16:25:53.447Z,23.85
2019-01-22T16:27:54.796Z,21.65
2019-01-22T16:29:56.171Z,23.92
2019-01-22T16:31:57.582Z,23.42
2019-01-22T16:33:59.025Z,23.65
2019-01-22T16:36:00.451Z,23.95
2019-01-22T16:38:01.815Z,24.72
2019-01-22T16:40:08.387Z,23.50
2019-01-22T16:42:09.823Z,25.40
2019-01-22T16:44:11.185Z,24.12
2019-01-22T16:46:12.551Z,24.85
2019-01-22T16:48:13.964Z,25.05
2019-01-22T16:50:15.428Z,25.97
2019-01-22T16:52:16.845Z,29.25
2019-01-22T16:54:18.205Z,27.77
2019-01-22T16:56:19.567Z,25.27
2019-01-22T16:58:21.284Z,30.40
2019-01-22T17:00:26.741Z,27.98
2019-01-22T17:02:28.110Z,28.52
2019-01-22T17:04:29.532Z,28.02
2019-01-22T17:06:31.002Z,28.23
2019-01-22T17:08:32.421Z,27.27
2019-01-22T17:10:34.056Z,30.10
2019-01-22T17:12:35.402Z,30.25
2019-01-22T17:14:36.836Z,32.13
2019-01-22T17:16:38.265Z,26.05
2019-01-22T17:18:39.729Z,29.10
2019-01-22T17:20:47.554Z,30.80
2019-01-22T17:22:44.413Z,29.37
2019-01-22T17:24:45.782Z,29.45
2019-01-22T17:26:47.145Z,29.55
2019-01-22T17:28:48.592Z,30.25
2019-01-22T17:30:49.954Z,32.25
2019-01-22T17:32:55.901Z,32.35
2019-01-22T17:34:57.966Z,31.00
2019-01-22T17:36:59.338Z,31.57
2019-01-22T17:39:00.804Z,33.10
2019-01-22T17:41:02.174Z,33.35
2019-01-22T17:43:04.033Z,30.50
2019-01-22T17:45:07.468Z,31.42
2019-01-22T17:47:08.831Z,32.80
2019-01-22T17:49:10.189Z,30.37
2019-01-22T17:51:11.691Z,31.02
2019-01-22T17:53:13.058Z,32.45
2019-01-22T17:55:14.428Z,32.53
2019-01-22T17:57:15.854Z,34.92
2019-01-22T17:59:17.238Z,33.25
2019-01-22T18:01:18.597Z,32.53
2019-01-22T18:03:20.351Z,33.40
2019-01-22T18:05:22.121Z,32.33
2019-01-22T18:07:23.487Z,33.35
2019-01-22T18:09:24.903Z,31.80
2019-01-22T18:11:26.278Z,31.73
2019-01-22T18:13:27.651Z,30.00
2019-01-22T18:15:29.136Z,30.85
2019-01-22T18:17:30.511Z,31.45
2019-01-22T18:19:31.870Z,33.10
2019-01-22T18:21:33.466Z,35.98
2019-01-22T18:23:34.834Z,32.23
2019-01-22T18:25:36.192Z,33.45
2019-01-22T18:27:37.620Z,34.90
2019-01-22T18:29:39.055Z,34.13
2019-01-22T18:31:40.422Z,33.88
2019-01-22T18:33:41.786Z,33.78
2019-01-22T18:35:43.191Z,32.58
2019-01-22T18:37:44.551Z,33.95
2019-01-22T18:39:45.991Z,34.70
2019-01-22T18:41:47.338Z,34.70
2019-01-22T18:43:48.719Z,33.13
2019-01-22T18:45:50.318Z,35.30
2019-01-22T18:47:51.676Z,33.92
2019-01-22T18:49:53.041Z,33.18
2019-01-22T18:51:54.464Z,34.27
2019-01-22T18:53:55.832Z,34.33
2019-01-22T18:55:57.254Z,137.45
2019-01-22T18:57:58.683Z,34.13
2019-01-22T19:00:00.037Z,61.80
2019-01-22T19:02:01.404Z,32.15
2019-01-22T19:04:04.021Z,32.25
2019-01-22T19:06:05.390Z,33.35
2019-01-22T19:08:07.006Z,33.50
2019-01-22T19:10:16.081Z,33.30
2019-01-22T19:12:17.447Z,34.25
2019-01-22T19:14:18.870Z,32.53
2019-01-22T19:16:20.356Z,33.48
2019-01-22T19:18:21.726Z,35.20
2019-01-22T19:20:23.087Z,32.63
2019-01-22T19:22:24.491Z,34.30
2019-01-22T19:24:25.850Z,34.63
2019-01-22T19:26:27.210Z,32.60
2019-01-22T19:28:28.627Z,35.52
2019-01-22T19:30:30.497Z,32.65
2019-01-22T19:32:31.852Z,32.05
2019-01-22T19:34:33.289Z,33.10
2019-01-22T19:36:34.647Z,35.03
2019-01-22T19:38:36.050Z,34.05
2019-01-22T19:40:37.563Z,35.73
2019-01-22T19:42:39.039Z,31.52
2019-01-22T19:44:40.393Z,33.78
2019-01-22T19:46:41.829Z,31.05
2019-01-22T19:48:43.195Z,31.12
2019-01-22T19:50:44.559Z,31.82
2019-01-22T19:52:45.979Z,35.60
2019-01-22T19:54:47.336Z,34.63
2019-01-22T19:56:48.763Z,35.13
2019-01-22T19:58:50.126Z,31.75
2019-01-22T20:00:51.488Z,30.10
2019-01-22T20:02:53.144Z,29.50
2019-01-22T20:04:54.510Z,33.38
2019-01-22T20:06:55.988Z,31.70
2019-01-22T20:08:57.421Z,33.05
2019-01-22T20:10:58.798Z,33.28
2019-01-22T20:13:00.162Z,33.90
2019-01-22T20:15:01.952Z,30.82
2019-01-22T20:17:03.389Z,33.25
2019-01-22T20:19:04.762Z,34.10
2019-01-22T20:21:06.188Z,31.50
2019-01-22T20:23:07.568Z,30.62
2019-01-22T20:25:09.216Z,32.05
2019-01-22T20:27:10.728Z,33.40
2019-01-22T20:29:12.190Z,32.85
2019-01-22T20:31:14.074Z,32.78
2019-01-22T20:33:15.441Z,31.97
2019-01-22T20:35:16.931Z,33.15
2019-01-22T20:37:18.356Z,32.60
2019-01-22T20:39:19.782Z,31.62
2019-01-22T20:41:21.141Z,33.00
2019-01-22T20:43:22.505Z,33.73
2019-01-22T20:45:27.561Z,32.55
2019-01-22T20:47:28.932Z,33.05
2019-01-22T20:49:30.307Z,33.02
2019-01-22T20:51:31.743Z,33.08
2019-01-22T20:53:33.092Z,30.60
2019-01-22T20:55:34.465Z,32.53
2019-01-22T20:57:35.885Z,33.98
2019-01-22T20:59:37.255Z,33.80
2019-01-22T21:01:38.922Z,33.58
2019-01-22T21:03:40.345Z,29.85
2019-01-22T21:05:41.707Z,29.45
2019-01-22T21:07:43.166Z,30.95
2019-01-22T21:09:44.936Z,32.78
2019-01-22T21:11:46.304Z,31.75
2019-01-22T21:13:47.671Z,30.68
2019-01-22T21:15:49.285Z,28.20
2019-01-22T21:17:50.653Z,31.10
2019-01-22T21:19:52.018Z,27.82
2019-01-22T21:21:53.448Z,32.60
2019-01-22T21:23:54.803Z,30.12
2019-01-22T21:25:56.172Z,30.77
2019-01-22T21:28:01.606Z,31.00
2019-01-22T21:30:00.854Z,32.85
2019-01-22T21:32:04.233Z,30.20
2019-01-22T21:34:05.652Z,28.95
2019-01-22T21:36:07.117Z,28.62
2019-01-22T21:38:08.841Z,30.60
2019-01-22T21:40:13.118Z,31.60
2019-01-22T21:42:14.475Z,30.43
2019-01-22T21:44:15.994Z,27.22
2019-01-22T21:46:17.367Z,28.40
2019-01-22T21:48:18.800Z,30.80
2019-01-22T21:50:20.376Z,28.92
2019-01-22T21:52:21.733Z,28.87
2019-01-22T21:54:23.160Z,30.20
2019-01-22T21:56:24.592Z,32.30
2019-01-22T21:58:25.953Z,34.95
2019-01-22T22:00:27.524Z,30.20
2019-01-22T22:02:28.934Z,31.48
2019-01-22T22:04:30.304Z,33.10
2019-01-22T22:06:31.671Z,31.23
2019-01-22T22:08:33.167Z,27.17
2019-01-22T22:10:34.725Z,31.00
2019-01-22T22:12:36.144Z,31.82
2019-01-22T22:14:37.606Z,27.27
2019-01-22T22:16:38.997Z,34.65
2019-01-22T22:18:40.398Z,31.60
2019-01-22T22:20:42.620Z,32.03
2019-01-22T22:22:44.389Z,30.32
2019-01-22T22:24:45.749Z,35.68
2019-01-22T22:26:47.142Z,28.92
2019-01-22T22:28:48.536Z,30.15
2019-01-22T22:30:49.897Z,32.95
2019-01-22T22:32:51.396Z,29.85
2019-01-22T22:34:52.766Z,27.30
2019-01-22T22:36:54.127Z,37.83
2019-01-22T22:38:55.732Z,30.15
2019-01-22T22:40:57.081Z,29.92
2019-01-22T22:42:58.450Z,32.10
2019-01-22T22:44:59.839Z,30.45
2019-01-22T22:47:01.213Z,30.23
2019-01-22T22:49:02.570Z,28.92
2019-01-22T22:51:03.966Z,29.27
2019-01-22T22:53:05.329Z,29.70
2019-01-22T22:55:06.791Z,35.05
2019-01-22T22:57:08.191Z,27.98
2019-01-22T22:59:09.554Z,31.12
2019-01-22T23:01:16.647Z,32.13
2019-01-22T23:03:18.017Z,33.42
2019-01-22T23:05:19.416Z,31.27
2019-01-22T23:07:20.819Z,34.43
2019-01-22T23:09:22.204Z,33.40
2019-01-22T23:11:23.573Z,31.05
2019-01-22T23:13:24.966Z,33.75
2019-01-22T23:15:26.341Z,31.65
2019-01-22T23:17:27.702Z,32.83
2019-01-22T23:19:29.100Z,32.98
2019-01-22T23:21:30.573Z,34.83
2019-01-22T23:23:31.977Z,30.68
2019-01-22T23:25:33.356Z,30.02
2019-01-22T23:27:34.726Z,33.58
2019-01-22T23:29:36.128Z,34.43
2019-01-22T23:31:37.493Z,35.85
2019-01-22T23:33:38.861Z,32.63
2019-01-22T23:35:40.760Z,35.80
2019-01-22T23:37:42.125Z,34.83
2019-01-22T23:39:43.487Z,36.45
2019-01-22T23:41:44.883Z,38.02
2019-01-22T23:43:46.281Z,37.28
2019-01-22T23:45:47.630Z,37.93
2019-01-22T23:47:49.018Z,38.83
2019-01-22T23:49:50.380Z,37.00
2019-01-22T23:51:52.448Z,38.53
2019-01-22T23:53:53.794Z,37.73
2019-01-22T23:55:55.144Z,38.88
2019-01-22T23:57:56.563Z,38.67
2019-01-22T23:59:58.146Z,43.02
